createdAt,value
2022-09-28T00:03:18.880Z,99515.31
2022-09-28T00:08:20.469Z,99512.91
2022-09-28T00:13:22.078Z,99513.72
2022-09-28T00:18:24.118Z,99505.56
2022-09-28T00:23:25.594Z,99503.13
2022-09-28T00:28:27.036Z,99508.00
2022-09-28T00:33:28.510Z,99505.09
2022-09-28T00:38:30.192Z,99504.25
2022-09-28T00:43:32.758Z,99504.94
2022-09-28T00:48:39.488Z,99494.06
2022-09-28T00:53:43.325Z,99481.22
2022-09-28T00:58:48.154Z,99483.75
2022-09-28T01:03:49.674Z,99481.59
2022-09-28T01:08:54.887Z,99470.78
2022-09-28T01:13:57.637Z,99469.56
2022-09-28T01:19:28.828Z,99467.97
2022-09-28T01:24:45.724Z,99462.59
2022-09-28T01:30:01.632Z,99463.34
2022-09-28T01:35:17.314Z,99466.97
2022-09-28T01:40:22.565Z,99467.69
2022-09-28T01:45:31.382Z,99481.53
2022-09-28T01:50:37.821Z,99474.75
2022-09-28T01:55:44.933Z,99486.16
2022-09-28T02:00:52.722Z,99482.13
2022-09-28T02:05:56.834Z,99470.41
2022-09-28T02:11:05.630Z,99474.16
2022-09-28T02:16:16.647Z,99471.44
2022-09-28T02:21:27.454Z,99473.13
2022-09-28T02:26:36.053Z,99475.69
2022-09-28T02:31:37.683Z,99475.38
2022-09-28T02:36:39.526Z,99471.16
2022-09-28T02:41:55.971Z,99477.41
2022-09-28T02:47:23.592Z,99483.03
2022-09-28T02:52:39.180Z,99479.81
2022-09-28T02:58:18.859Z,99491.22
2022-09-28T03:03:46.307Z,99494.47
2022-09-28T03:09:10.702Z,99498.09
2022-09-28T03:14:12.914Z,99502.53
2022-09-28T03:19:16.771Z,99504.59
2022-09-28T03:24:18.309Z,99503.41
2022-09-28T03:29:22.350Z,99506.69
2022-09-28T03:34:23.825Z,99512.44
2022-09-28T03:39:25.692Z,99507.88
2022-09-28T03:44:27.152Z,99500.88
2022-09-28T03:49:28.642Z,99506.31
2022-09-28T03:54:30.197Z,99504.97
2022-09-28T03:59:31.727Z,99505.16
2022-09-28T04:04:33.244Z,99503.47
2022-09-28T04:09:34.719Z,99504.66
2022-09-28T04:14:36.169Z,99506.34
2022-09-28T04:19:37.722Z,99510.25
2022-09-28T04:24:39.683Z,99499.41
2022-09-28T04:29:43.909Z,99506.72
2022-09-28T04:34:45.362Z,99497.53
2022-09-28T04:39:48.518Z,99508.72
2022-09-28T04:44:50.186Z,99508.25
2022-09-28T04:49:51.634Z,99501.69
2022-09-28T04:54:53.171Z,99503.53
2022-09-28T04:59:54.661Z,99514.06
2022-09-28T05:04:56.507Z,99516.44
2022-09-28T05:09:58.065Z,99510.38
2022-09-28T05:15:00.569Z,99518.38
2022-09-28T05:20:02.989Z,99514.47
2022-09-28T05:25:04.753Z,99519.53
2022-09-28T05:30:06.943Z,99515.84
2022-09-28T05:35:08.926Z,99515.31
2022-09-28T05:40:11.068Z,99509.91
2022-09-28T05:45:12.588Z,99509.72
2022-09-28T05:50:16.281Z,99504.81
2022-09-28T05:55:17.822Z,99498.59
2022-09-28T06:00:19.704Z,99505.53
2022-09-28T06:05:21.185Z,99505.19
2022-09-28T06:10:23.308Z,99515.84
2022-09-28T06:15:27.051Z,99521.59
2022-09-28T06:20:31.424Z,99517.34
2022-09-28T06:25:32.929Z,99524.94
2022-09-28T06:30:38.198Z,99532.78
2022-09-28T06:35:40.642Z,99542.75
2022-09-28T06:40:42.125Z,99545.59
2022-09-28T06:45:43.975Z,99551.00
2022-09-28T06:50:46.264Z,99546.69
2022-09-28T06:55:50.965Z,99554.94
2022-09-28T07:00:52.587Z,99557.78
2022-09-28T07:05:55.770Z,99565.28
2022-09-28T07:10:57.271Z,99560.25
2022-09-28T07:16:01.858Z,99573.00
2022-09-28T07:21:04.124Z,99570.53
2022-09-28T07:26:08.743Z,99573.53
2022-09-28T07:31:11.904Z,99576.66
2022-09-28T07:36:17.870Z,99581.91
2022-09-28T07:41:32.072Z,99584.47
2022-09-28T07:46:34.801Z,99578.28
2022-09-28T07:51:36.250Z,99579.75
2022-09-28T07:56:37.713Z,99595.94
2022-09-28T08:01:39.341Z,99595.94
2022-09-28T08:06:41.053Z,99601.34
2022-09-28T08:11:43.857Z,99601.34
2022-09-28T08:16:47.540Z,99601.84
2022-09-28T08:21:51.076Z,99598.88
2022-09-28T08:26:53.394Z,99610.53
2022-09-28T08:31:58.274Z,99609.63
2022-09-28T08:37:02.492Z,99618.53
2022-09-28T08:42:22.381Z,99624.88
2022-09-28T08:47:47.543Z,99624.94
2022-09-28T08:52:53.854Z,99633.81
2022-09-28T08:58:05.319Z,99635.56
2022-09-28T09:03:11.966Z,99635.56
2022-09-28T09:08:39.382Z,99646.75
2022-09-28T09:13:55.650Z,99650.56
2022-09-28T09:19:00.122Z,99663.81
2022-09-28T09:24:18.593Z,99655.81
2022-09-28T09:29:44.775Z,99665.47
2022-09-28T09:35:01.338Z,99658.69
2022-09-28T09:40:26.514Z,99666.84
2022-09-28T09:45:47.022Z,99667.03
2022-09-28T09:51:00.123Z,99669.53
2022-09-28T09:56:28.132Z,99661.25
2022-09-28T10:01:35.232Z,99666.88
2022-09-28T10:06:37.661Z,99662.38
2022-09-28T10:11:49.850Z,99664.41
2022-09-28T10:16:53.755Z,99671.41
2022-09-28T10:21:57.154Z,99662.03
2022-09-28T10:27:07.786Z,99667.53
2022-09-28T10:32:24.332Z,99661.69
2022-09-28T10:37:25.886Z,99668.31
2022-09-28T10:42:31.641Z,99668.63
2022-09-28T10:47:35.490Z,99668.19
2022-09-28T10:52:40.332Z,99672.25
2022-09-28T10:57:41.807Z,99668.91
2022-09-28T11:02:43.399Z,99674.44
2022-09-28T11:07:47.086Z,99677.16
2022-09-28T11:12:50.042Z,99687.13
2022-09-28T11:17:51.618Z,99670.63
2022-09-28T11:23:13.079Z,99692.22
2022-09-28T11:28:25.855Z,99684.06
2022-09-28T11:33:33.046Z,99697.44
2022-09-28T11:39:00.798Z,99701.50
2022-09-28T11:44:08.127Z,99705.69
2022-09-28T11:49:40.674Z,99698.09
2022-09-28T11:54:52.847Z,99697.03
2022-09-28T12:00:02.501Z,99693.72
2022-09-28T12:05:26.815Z,99697.91
2022-09-28T12:10:35.896Z,99693.72
2022-09-28T12:15:59.314Z,99692.00
2022-09-28T12:21:28.990Z,99705.50
2022-09-28T12:26:40.904Z,99703.00
2022-09-28T12:31:55.852Z,99710.56
2022-09-28T12:37:13.268Z,99706.91
2022-09-28T12:42:32.886Z,99699.03
2022-09-28T12:48:08.142Z,99687.41
2022-09-28T12:53:35.113Z,99695.09
2022-09-28T12:58:36.789Z,99696.16
2022-09-28T13:04:12.699Z,99695.16
2022-09-28T13:09:26.581Z,99695.38
2022-09-28T13:14:55.081Z,99698.75
2022-09-28T13:20:03.939Z,99697.94
2022-09-28T13:25:14.485Z,99696.03
2022-09-28T13:30:19.519Z,99701.09
2022-09-28T13:35:21.141Z,99706.97
2022-09-28T13:41:01.039Z,99707.94
2022-09-28T13:46:18.634Z,99693.19
2022-09-28T13:51:40.360Z,99702.47
2022-09-28T13:57:02.801Z,99698.06
2022-09-28T14:02:27.734Z,99694.50
2022-09-28T14:07:35.330Z,99710.53
2022-09-28T14:12:36.609Z,99704.63
2022-09-28T14:17:54.424Z,99712.22
2022-09-28T14:23:00.966Z,99710.94
2022-09-28T14:28:20.599Z,99718.97
2022-09-28T14:33:25.394Z,99720.81
2022-09-28T14:38:55.325Z,99717.69
2022-09-28T14:44:02.512Z,99722.31
2022-09-28T14:49:05.386Z,99724.22
2022-09-28T14:54:12.850Z,99722.53
2022-09-28T14:59:39.048Z,99713.09
2022-09-28T15:04:48.957Z,99719.84
2022-09-28T15:09:52.820Z,99729.09
2022-09-28T15:15:04.057Z,99737.53
2022-09-28T15:20:22.137Z,99729.53
2022-09-28T15:25:26.779Z,99731.22
2022-09-28T15:30:31.750Z,99732.03
2022-09-28T15:35:33.355Z,99746.56
2022-09-28T15:40:37.832Z,99747.44
2022-09-28T15:45:43.926Z,99739.63
2022-09-28T15:51:12.239Z,99743.63
2022-09-28T15:56:13.943Z,99750.56
2022-09-28T16:01:36.070Z,99757.09
2022-09-28T16:06:37.864Z,99759.81
2022-09-28T16:11:41.026Z,99761.91
2022-09-28T16:16:52.283Z,99765.66
2022-09-28T16:21:57.534Z,99761.66
2022-09-28T16:27:03.065Z,99774.81
2022-09-28T16:32:26.102Z,99764.00
2022-09-28T16:37:32.358Z,99765.38
2022-09-28T16:42:33.976Z,99775.41
2022-09-28T16:47:35.961Z,99772.31
2022-09-28T16:52:59.307Z,99776.00
2022-09-28T16:58:01.846Z,99780.56
2022-09-28T17:03:12.815Z,99786.47
2022-09-28T17:08:17.438Z,99779.63
2022-09-28T17:13:33.125Z,99773.25
2022-09-28T17:18:37.342Z,99779.56
2022-09-28T17:23:39.070Z,99792.09
2022-09-28T17:28:40.520Z,99794.13
2022-09-28T17:33:42.541Z,99797.34
2022-09-28T17:38:45.186Z,99790.44
2022-09-28T17:43:47.124Z,99805.44
2022-09-28T17:48:49.137Z,99796.56
2022-09-28T17:53:50.636Z,99805.94
2022-09-28T17:58:52.622Z,99805.25
2022-09-28T18:03:54.157Z,99804.88
2022-09-28T18:08:55.635Z,99808.53
2022-09-28T18:13:57.150Z,99811.69
2022-09-28T18:18:58.641Z,99817.34
2022-09-28T18:24:00.195Z,99827.03
2022-09-28T18:29:01.682Z,99821.38
2022-09-28T18:34:03.313Z,99822.22
2022-09-28T18:39:04.817Z,99828.16
2022-09-28T18:44:06.338Z,99823.34
2022-09-28T18:49:07.802Z,99831.97
2022-09-28T18:54:09.510Z,99824.00
2022-09-28T18:59:12.363Z,99826.06
2022-09-28T19:04:14.013Z,99831.88
2022-09-28T19:09:18.773Z,99833.97
2022-09-28T19:14:20.457Z,99832.03
2022-09-28T19:19:21.983Z,99830.66
2022-09-28T19:24:23.494Z,99827.97
2022-09-28T19:29:25.054Z,99821.31
2022-09-28T19:34:29.909Z,99824.13
2022-09-28T19:39:31.505Z,99828.75
2022-09-28T19:44:33.418Z,99828.75
2022-09-28T19:49:37.154Z,99828.56
2022-09-28T19:54:38.744Z,99827.34
2022-09-28T19:59:40.274Z,99834.97
2022-09-28T20:04:41.758Z,99838.81
2022-09-28T20:09:43.407Z,99845.38
2022-09-28T20:14:44.858Z,99851.19
2022-09-28T20:19:47.922Z,99850.19
2022-09-28T20:24:49.416Z,99851.75
2022-09-28T20:29:50.912Z,99857.75
2022-09-28T20:34:52.401Z,99859.53
2022-09-28T20:39:53.902Z,99864.41
2022-09-28T20:44:55.361Z,99861.56
2022-09-28T20:49:56.864Z,99871.00
2022-09-28T20:54:58.351Z,99874.34
2022-09-28T20:59:59.896Z,99870.28
2022-09-28T21:05:01.369Z,99875.25
2022-09-28T21:10:02.814Z,99881.03
2022-09-28T21:15:06.039Z,99880.03
2022-09-28T21:20:08.445Z,99877.56
2022-09-28T21:25:09.938Z,99880.16
2022-09-28T21:30:12.081Z,99893.44
2022-09-28T21:35:13.609Z,99881.88
2022-09-28T21:40:15.273Z,99893.13
2022-09-28T21:45:16.984Z,99895.34
2022-09-28T21:50:23.676Z,99904.16
2022-09-28T21:55:25.181Z,99895.69
2022-09-28T22:00:26.651Z,99906.38
2022-09-28T22:05:28.844Z,99910.00
2022-09-28T22:10:30.292Z,99905.00
2022-09-28T22:15:31.778Z,99907.59
2022-09-28T22:20:33.254Z,99908.25
2022-09-28T22:25:34.754Z,99910.13
2022-09-28T22:30:36.205Z,99910.44
2022-09-28T22:35:38.749Z,99915.06
2022-09-28T22:40:51.456Z,99919.34
2022-09-28T22:46:08.905Z,99928.72
2022-09-28T22:51:10.452Z,99922.75
2022-09-28T22:56:17.476Z,99942.13
2022-09-28T23:01:25.660Z,99933.78
2022-09-28T23:06:30.202Z,99933.78
2022-09-28T23:11:31.689Z,99928.91
2022-09-28T23:16:33.175Z,99931.97
2022-09-28T23:21:34.731Z,99928.25
2022-09-28T23:26:36.955Z,99933.03
2022-09-28T23:31:39.153Z,99933.56
2022-09-28T23:36:40.878Z,99934.72
2022-09-28T23:41:42.325Z,99934.25
2022-09-28T23:46:43.869Z,99931.03
2022-09-28T23:51:45.474Z,99926.97
2022-09-28T23:56:46.944Z,99935.13
